H.kanter — ESUB — position and weather

sailwx.info

Track history (hours):
 
Tides and Currents Weather Stations Pressure Air Temp Water Temp Dewpoint Dewpoint Depression Visibility Wind Speed Wind Dir Waves Ship Positions

H.kanter

Last reported at 2014-Dec-12 01:15 UTC. Time now 2014-Dec-22 00:37 UTC.
Position N 59°32' E 024°57'.
Warning: this ship's position is 9 days out of date.

Length 33 m; draft 4.7 m.

Type: Tug. MMSI: 276504000.

Date/timePositionNaut miles runAvg speedWind from/ knotsBaromVisibWave heightAir tempDewpointWater temp
2014-Dec-12 01:15N 59°32' E 024°57'6 8.0
2014-Dec-12 00:34N 59°36' E 024°49'6 5.7
2014-Dec-11 23:34N 59°34' E 024°39'6 6.0
2014-Dec-11 22:33N 59°28' E 024°39'0 0.0
2014-Dec-11 21:31N 59°28' E 024°39'5 5.2
2014-Dec-11 20:34N 59°33' E 024°39'6 5.9
2014-Dec-11 19:34N 59°37' E 024°47'  
2014-Dec-07 02:33N 59°34' E 024°53'7 6.5
2014-Dec-07 01:33N 59°37' E 024°43'10 1.4
2014-Dec-06 18:33N 59°28' E 024°37'1 1.3
2014-Dec-06 17:33N 59°28' E 024°39'4 4.0
2014-Dec-06 16:33N 59°32' E 024°38'6 6.3
2014-Dec-06 15:33N 59°37' E 024°46'  
Track history (hours):
 
Tides and Currents Weather Stations Pressure Air Temp Water Temp Dewpoint Dewpoint Depression Visibility Wind Speed Wind Dir Waves Ship Positions

H.kanter

Last reported at 2014-Dec-12 01:15 UTC. Time now 2014-Dec-22 00:37 UTC.
Position N 59°32' E 024°57'.
Warning: this ship's position is 9 days out of date.

Length 33 m; draft 4.7 m.

Type: Tug. MMSI: 276504000.

Date/timePositionNaut miles runAvg speedWind from/ knotsBaromVisibWave heightAir tempDewpointWater temp
2014-Dec-12 01:15N 59°32' E 024°57'6 8.0
2014-Dec-12 00:34N 59°36' E 024°49'6 5.7
2014-Dec-11 23:34N 59°34' E 024°39'6 6.0
2014-Dec-11 22:33N 59°28' E 024°39'0 0.0
2014-Dec-11 21:31N 59°28' E 024°39'5 5.2
2014-Dec-11 20:34N 59°33' E 024°39'6 5.9
2014-Dec-11 19:34N 59°37' E 024°47'  
2014-Dec-07 02:33N 59°34' E 024°53'7 6.5
2014-Dec-07 01:33N 59°37' E 024°43'10 1.4
2014-Dec-06 18:33N 59°28' E 024°37'1 1.3
2014-Dec-06 17:33N 59°28' E 024°39'4 4.0
2014-Dec-06 16:33N 59°32' E 024°38'6 6.3
2014-Dec-06 15:33N 59°37' E 024°46'  

Dump ship's entire track history